createdAt,value
2022-08-18T00:00:24.882Z,95471.41
2022-08-18T00:03:12.263Z,95454.81
2022-08-18T00:06:16.924Z,95460.34
2022-08-18T00:09:06.951Z,95465.47
2022-08-18T00:11:53.258Z,95461.91
2022-08-18T00:14:39.314Z,95478.06
2022-08-18T00:17:25.630Z,95468.22
2022-08-18T00:20:19.074Z,95463.50
2022-08-18T00:23:10.286Z,95462.66
2022-08-18T00:25:57.759Z,95465.81
2022-08-18T00:28:44.994Z,95474.50
2022-08-18T00:31:31.657Z,95473.69
2022-08-18T00:34:20.055Z,95476.84
2022-08-18T00:37:06.022Z,95485.53
2022-08-18T00:39:54.007Z,95480.00
2022-08-18T00:42:44.438Z,95485.09
2022-08-18T00:45:36.270Z,95484.72
2022-08-18T00:48:23.933Z,95487.84
2022-08-18T00:51:21.394Z,95478.75
2022-08-18T00:54:11.512Z,95479.94
2022-08-18T00:57:01.406Z,95484.69
2022-08-18T01:00:20.197Z,95484.69
2022-08-18T01:03:11.454Z,95483.88
2022-08-18T01:06:02.244Z,95483.88
2022-08-18T01:08:48.385Z,95466.47
2022-08-18T01:11:37.053Z,95479.91
2022-08-18T01:14:22.905Z,95472.78
2022-08-18T01:17:30.806Z,95472.38
2022-08-18T01:20:55.318Z,95475.94
2022-08-18T01:23:41.725Z,95476.72
2022-08-18T01:26:30.379Z,95480.66
2022-08-18T01:29:19.363Z,95474.34
2022-08-18T01:32:05.826Z,95473.94
2022-08-18T01:34:52.397Z,95462.91
2022-08-18T01:37:38.525Z,95463.31
2022-08-18T01:41:21.187Z,95464.88
2022-08-18T01:43:31.178Z,95459.34
2022-08-18T01:46:20.824Z,95450.69
2022-08-18T01:49:08.546Z,95449.09
2022-08-18T01:51:55.753Z,95456.19
2022-08-18T01:54:43.311Z,95452.25
2022-08-18T01:57:30.517Z,95454.63
2022-08-18T02:00:18.151Z,95439.63
2022-08-18T02:03:10.048Z,95445.16
2022-08-18T02:06:00.879Z,95434.09
2022-08-18T02:08:53.542Z,95430.91
2022-08-18T02:11:40.784Z,95438.81
2022-08-18T02:14:58.713Z,95453.75
2022-08-18T02:17:46.203Z,95452.97
2022-08-18T02:20:32.321Z,95449.00
2022-08-18T02:23:18.164Z,95441.91
2022-08-18T02:26:08.554Z,95438.75
2022-08-18T02:28:54.262Z,95427.72
2022-08-18T02:31:40.068Z,95433.22
2022-08-18T02:34:25.923Z,95434.00
2022-08-18T02:37:15.362Z,95437.16
2022-08-18T02:40:01.456Z,95441.06
2022-08-18T02:42:47.649Z,95432.41
2022-08-18T02:45:33.526Z,95433.16
2022-08-18T02:48:40.050Z,95435.53
2022-08-18T02:51:26.972Z,95438.69
2022-08-18T02:54:12.832Z,95435.50
2022-08-18T02:56:59.005Z,95446.56
2022-08-18T02:59:47.452Z,95434.31
2022-08-18T03:02:34.540Z,95432.25
2022-08-18T03:05:20.582Z,95444.91
2022-08-18T03:08:06.636Z,95452.78
2022-08-18T03:10:54.740Z,95444.03
2022-08-18T03:13:40.619Z,95455.47
2022-08-18T03:16:26.641Z,95460.97
2022-08-18T03:19:16.248Z,95449.50
2022-08-18T03:22:03.082Z,95437.66
2022-08-18T03:24:49.250Z,95461.34
2022-08-18T03:27:35.107Z,95446.34
2022-08-18T03:30:21.274Z,95462.50
2022-08-18T03:33:07.034Z,95466.03
2022-08-18T03:35:54.925Z,95460.47
2022-08-18T03:38:43.440Z,95470.34
2022-08-18T03:41:57.192Z,95462.44
2022-08-18T03:44:39.850Z,95470.31
2022-08-18T03:47:27.457Z,95474.66
2022-08-18T03:50:14.074Z,95460.03
2022-08-18T03:53:00.503Z,95464.31
2022-08-18T03:55:46.167Z,95467.50
2022-08-18T03:58:32.111Z,95462.00
2022-08-18T04:01:25.714Z,95468.31
2022-08-18T04:04:19.628Z,95465.13
2022-08-18T04:07:10.778Z,95471.06
2022-08-18T04:09:58.941Z,95474.59
2022-08-18T04:12:45.929Z,95467.50
2022-08-18T04:15:32.782Z,95462.34
2022-08-18T04:18:19.577Z,95472.59
2022-08-18T04:21:10.094Z,95469.44
2022-08-18T04:23:55.955Z,95474.59
2022-08-18T04:26:46.095Z,95484.03
2022-08-18T04:29:32.332Z,95479.75
2022-08-18T04:32:19.490Z,95485.63
2022-08-18T04:35:13.972Z,95488.81
2022-08-18T04:38:02.146Z,95476.16
2022-08-18T04:40:48.182Z,95491.56
2022-08-18T04:43:34.618Z,95474.59
2022-08-18T04:46:24.034Z,95491.94
2022-08-18T04:49:12.022Z,95495.09
2022-08-18T04:52:36.334Z,95504.53
2022-08-18T04:55:24.831Z,95498.63
2022-08-18T04:58:10.632Z,95492.34
2022-08-18T05:00:59.073Z,95496.69
2022-08-18T05:03:50.226Z,95496.69
2022-08-18T05:06:36.363Z,95492.72
2022-08-18T05:09:23.141Z,95502.25
2022-08-18T05:12:13.472Z,95504.59
2022-08-18T05:14:59.559Z,95504.22
2022-08-18T05:17:50.498Z,95504.59
2022-08-18T05:20:40.861Z,95504.25
2022-08-18T05:23:29.659Z,95500.72
2022-08-18T05:26:17.191Z,95492.84
2022-08-18T05:29:18.957Z,95507.88
2022-08-18T05:32:36.967Z,95513.41
2022-08-18T05:35:25.658Z,95512.25
2022-08-18T05:38:24.852Z,95506.34
2022-08-18T05:41:13.654Z,95507.16
2022-08-18T05:44:01.156Z,95514.25
2022-08-18T05:47:18.790Z,95512.66
2022-08-18T05:50:11.085Z,95511.50
2022-08-18T05:53:00.113Z,95515.03
2022-08-18T05:56:25.062Z,95511.50
2022-08-18T05:59:14.828Z,95502.44
2022-08-18T06:02:36.283Z,95504.00
2022-08-18T06:05:44.135Z,95508.78
2022-08-18T06:08:42.664Z,95515.09
2022-08-18T06:11:28.462Z,95516.69
2022-08-18T06:14:14.610Z,95502.53
2022-08-18T06:17:20.720Z,95508.06
2022-08-18T06:20:27.321Z,95507.31
2022-08-18T06:23:28.064Z,95507.34
2022-08-18T06:26:40.394Z,95496.31
2022-08-18T06:29:29.929Z,95510.50
2022-08-18T06:32:54.982Z,95514.44
2022-08-18T06:35:52.976Z,95515.25
2022-08-18T06:38:47.876Z,95521.56
2022-08-18T06:41:42.747Z,95516.84
2022-08-18T06:44:52.349Z,95504.25
2022-08-18T06:47:44.725Z,95501.91
2022-08-18T06:50:43.514Z,95503.50
2022-08-18T06:53:57.717Z,95507.47
2022-08-18T06:56:43.382Z,95500.44
2022-08-18T06:59:30.782Z,95499.63
2022-08-18T07:02:24.421Z,95487.03
2022-08-18T07:05:20.732Z,95495.69
2022-08-18T07:08:11.905Z,95485.88
2022-08-18T07:11:13.518Z,95491.81
2022-08-18T07:14:23.418Z,95478.41
2022-08-18T07:17:13.917Z,95481.59
2022-08-18T07:20:24.230Z,95477.66
2022-08-18T07:23:40.059Z,95477.66
2022-08-18T07:26:26.083Z,95470.59
2022-08-18T07:29:16.179Z,95477.66
2022-08-18T07:32:15.803Z,95484.78
2022-08-18T07:35:19.749Z,95483.22
2022-08-18T07:38:42.121Z,95481.66
2022-08-18T07:41:33.944Z,95481.66
2022-08-18T07:44:55.335Z,95483.25
2022-08-18T07:48:15.940Z,95482.03
2022-08-18T07:51:17.335Z,95495.88
2022-08-18T07:54:49.258Z,95498.66
2022-08-18T07:57:46.813Z,95487.22
2022-08-18T08:04:02.998Z,95480.53
2022-08-18T08:07:24.580Z,95487.59
2022-08-18T08:10:35.936Z,95488.81
2022-08-18T08:13:55.162Z,95484.47
2022-08-18T08:16:58.275Z,95486.44
2022-08-18T08:20:01.868Z,95479.31
2022-08-18T08:23:24.176Z,95483.28
2022-08-18T08:26:45.077Z,95479.69
2022-08-18T08:30:12.132Z,95478.50
2022-08-18T08:33:25.648Z,95477.72
2022-08-18T08:36:17.303Z,95476.16
2022-08-18T08:39:34.830Z,95474.56
2022-08-18T08:42:30.638Z,95474.53
2022-08-18T08:45:29.828Z,95462.72
2022-08-18T08:48:28.783Z,95471.75
2022-08-18T08:51:31.691Z,95474.13
2022-08-18T08:54:45.215Z,95468.16
2022-08-18T08:57:36.145Z,95459.47
2022-08-18T09:00:22.552Z,95452.31
2022-08-18T09:03:08.385Z,95457.03
2022-08-18T09:06:00.209Z,95455.44
2022-08-18T09:09:12.299Z,95446.72
2022-08-18T09:12:04.793Z,95446.72
2022-08-18T09:15:30.067Z,95452.19
2022-08-18T09:18:19.465Z,95441.47
2022-08-18T09:21:26.535Z,95443.81
2022-08-18T09:24:48.413Z,95429.16
2022-08-18T09:28:11.703Z,95427.53
2022-08-18T09:31:21.225Z,95425.16
2022-08-18T09:34:34.147Z,95423.13
2022-08-18T09:37:26.544Z,95425.03
2022-08-18T09:41:01.956Z,95417.13
2022-08-18T09:47:23.807Z,95411.47
2022-08-18T09:50:24.601Z,95408.34
2022-08-18T09:50:38.376Z,95419.44
2022-08-18T09:53:38.156Z,95402.88
2022-08-18T09:56:53.942Z,95399.84
2022-08-18T09:59:49.604Z,95391.25
2022-08-18T10:02:36.993Z,95395.22
2022-08-18T10:05:27.698Z,95382.63
2022-08-18T10:08:21.625Z,95385.78
2022-08-18T10:11:32.232Z,95381.84
2022-08-18T10:14:47.879Z,95381.03
2022-08-18T10:22:11.157Z,95381.75
2022-08-18T10:25:09.201Z,95379.41
2022-08-18T10:28:50.272Z,95371.97
2022-08-18T10:31:59.838Z,95377.50
2022-08-18T10:34:53.199Z,95378.63
2022-08-18T10:41:26.284Z,95371.03
2022-08-18T10:44:28.864Z,95374.09
2022-08-18T10:47:33.486Z,95381.13
2022-08-18T10:50:23.257Z,95379.00
2022-08-18T10:53:44.042Z,95378.06
2022-08-18T10:56:45.528Z,95362.13
2022-08-18T12:14:35.316Z,95337.72
2022-08-18T12:17:52.404Z,95323.53
2022-08-18T12:20:39.220Z,95308.69
2022-08-18T12:23:25.174Z,95305.72
2022-08-18T12:26:26.867Z,95296.44
2022-08-18T12:38:56.095Z,95282.47
2022-08-18T12:41:42.745Z,95271.84
2022-08-18T12:44:29.031Z,95279.22
2022-08-18T12:47:20.721Z,95277.19
2022-08-18T12:50:08.793Z,95276.38
2022-08-18T12:52:56.923Z,95265.50
2022-08-18T12:55:45.686Z,95273.28
2022-08-18T12:58:31.763Z,95270.31
2022-08-18T13:01:25.213Z,95272.00
2022-08-18T13:04:13.995Z,95268.88
2022-08-18T13:07:05.799Z,95264.81
2022-08-18T13:09:53.743Z,95266.47
2022-08-18T13:12:40.479Z,95268.25
2022-08-18T13:15:28.917Z,95249.16
2022-08-18T13:18:16.735Z,95248.78
2022-08-18T13:21:07.341Z,95229.31
2022-08-18T13:23:53.355Z,95240.56
2022-08-18T13:26:42.764Z,95247.75
2022-08-18T13:29:33.656Z,95244.00
2022-08-18T13:32:19.774Z,95237.13
2022-08-18T13:35:09.139Z,95236.81
2022-08-18T13:37:59.764Z,95240.22
2022-08-18T13:40:47.168Z,95237.88
2022-08-18T13:43:39.279Z,95249.59
2022-08-18T13:46:29.833Z,95239.88
2022-08-18T13:49:23.595Z,95235.78
2022-08-18T13:52:33.092Z,95234.50
2022-08-18T13:55:20.696Z,95233.88
2022-08-18T13:58:17.405Z,95244.78
2022-08-18T14:01:42.238Z,95242.09
2022-08-18T14:04:20.245Z,95243.19
2022-08-18T14:07:11.076Z,95246.00
2022-08-18T14:09:59.144Z,95219.97
2022-08-18T14:12:56.938Z,95234.13
2022-08-18T14:15:48.046Z,95222.63
2022-08-18T14:18:37.429Z,95233.53
2022-08-18T14:21:44.806Z,95226.78
2022-08-18T14:24:53.913Z,95223.16
2022-08-18T14:27:40.048Z,95220.91
2022-08-18T14:30:27.440Z,95216.16
2022-08-18T14:36:05.858Z,95219.78
2022-08-18T14:38:53.088Z,95218.50
2022-08-18T14:41:41.024Z,95223.81
2022-08-18T14:44:41.611Z,95207.97
2022-08-18T14:47:33.137Z,95208.59
2022-08-18T14:50:25.193Z,95198.38
2022-08-18T14:53:15.065Z,95201.94
2022-08-18T14:56:01.267Z,95200.84
2022-08-18T14:58:47.708Z,95203.59
2022-08-18T15:01:36.596Z,95210.19
2022-08-18T15:04:30.439Z,95207.19
2022-08-18T15:07:18.220Z,95196.25
2022-08-18T15:10:16.131Z,95202.31
2022-08-18T15:13:03.267Z,95201.16
2022-08-18T15:15:51.820Z,95211.34
2022-08-18T15:18:38.069Z,95206.56
2022-08-18T15:21:42.568Z,95207.13
2022-08-18T15:24:48.197Z,95213.66
2022-08-18T15:27:42.303Z,95198.78
2022-08-18T15:30:51.359Z,95203.91
2022-08-18T15:33:37.628Z,95204.13
2022-08-18T15:36:29.138Z,95197.88
2022-08-18T15:39:15.928Z,95191.38
2022-08-18T15:42:15.287Z,95187.19
2022-08-18T15:45:11.906Z,95191.56
2022-08-18T15:48:04.282Z,95201.28
2022-08-18T15:50:52.027Z,95199.69
2022-08-18T15:53:44.812Z,95196.34
2022-08-18T15:56:34.130Z,95197.50
2022-08-18T15:59:19.853Z,95186.88
2022-08-18T16:02:11.838Z,95195.81
2022-08-18T16:04:58.135Z,95190.88
2022-08-18T16:07:46.076Z,95195.41
2022-08-18T16:10:33.568Z,95196.34
2022-08-18T16:13:20.108Z,95198.06
2022-08-18T16:16:11.467Z,95190.34
2022-08-18T16:18:57.558Z,95183.25
2022-08-18T16:21:43.727Z,95185.22
2022-08-18T16:24:29.518Z,95177.25
2022-08-18T16:27:15.563Z,95180.38
2022-08-18T16:30:04.705Z,95178.13
2022-08-18T16:32:51.679Z,95170.25
2022-08-18T16:35:38.071Z,95161.16
2022-08-18T16:38:25.093Z,95172.09
2022-08-18T16:41:15.091Z,95163.47
2022-08-18T16:44:01.057Z,95165.72
2022-08-18T16:46:50.121Z,95170.41
2022-08-18T16:49:35.943Z,95176.50
2022-08-18T16:52:21.771Z,95182.59
2022-08-18T16:55:09.862Z,95177.47
2022-08-18T16:58:15.694Z,95171.72
2022-08-18T17:01:21.657Z,95181.81
2022-08-18T17:04:13.521Z,95185.41
2022-08-18T17:07:03.205Z,95191.34
2022-08-18T17:09:48.995Z,95185.84
2022-08-18T17:12:36.026Z,95196.81
2022-08-18T17:15:21.782Z,95203.47
2022-08-18T17:18:08.112Z,95211.75
2022-08-18T17:20:55.507Z,95198.56
2022-08-18T17:23:42.187Z,95194.78
2022-08-18T17:26:53.087Z,95209.22
2022-08-18T17:30:03.576Z,95210.34
2022-08-18T17:33:06.170Z,95210.91
2022-08-18T17:35:54.231Z,95203.63
2022-08-18T17:38:50.227Z,95214.44
2022-08-18T17:42:01.048Z,95219.44
2022-08-18T17:44:52.296Z,95215.16
2022-08-18T17:48:00.877Z,95228.09
2022-08-18T17:51:08.545Z,95219.53
2022-08-18T17:53:54.650Z,95231.56
2022-08-18T17:56:45.562Z,95230.88
2022-08-18T18:00:06.138Z,95238.22
2022-08-18T18:03:01.307Z,95238.38
2022-08-18T18:05:53.325Z,95244.16
2022-08-18T18:08:55.535Z,95258.59
2022-08-18T18:11:47.167Z,95248.16
2022-08-18T18:14:38.274Z,95260.53
2022-08-18T18:17:32.557Z,95263.84
2022-08-18T18:20:38.489Z,95274.41
2022-08-18T18:23:29.750Z,95276.94
2022-08-18T18:26:29.725Z,95282.25
2022-08-18T18:29:33.300Z,95280.41
2022-08-18T18:32:38.915Z,95289.34
2022-08-18T18:35:34.417Z,95288.31
2022-08-18T18:39:22.274Z,95296.81
2022-08-18T18:42:35.147Z,95291.09
2022-08-18T18:45:31.244Z,95308.91
2022-08-18T18:48:48.146Z,95310.28
2022-08-18T18:51:50.840Z,95302.94
2022-08-18T18:54:49.696Z,95306.25
2022-08-18T18:57:49.573Z,95314.72
2022-08-18T19:00:53.990Z,95313.66
2022-08-18T19:03:46.344Z,95317.00
2022-08-18T19:06:44.120Z,95325.78
2022-08-18T20:09:50.193Z,95350.97
2022-08-18T20:13:00.835Z,95352.53
2022-08-18T20:16:15.194Z,95358.09
2022-08-18T20:19:01.604Z,95350.91
2022-08-18T20:22:07.717Z,95353.72
2022-08-18T20:25:20.091Z,95347.81
2022-08-18T20:28:12.829Z,95353.00
2022-08-18T20:31:17.053Z,95351.09
2022-08-18T20:34:14.031Z,95350.28
2022-08-18T20:37:08.156Z,95344.78
2022-08-18T20:39:55.598Z,95348.75
2022-08-18T20:42:55.749Z,95347.66
2022-08-18T20:45:46.126Z,95340.91
2022-08-18T20:49:14.126Z,95352.81
2022-08-18T20:52:13.353Z,95356.78
2022-08-18T20:55:35.001Z,95360.03
2022-08-18T20:58:25.925Z,95360.03
2022-08-18T21:01:23.129Z,95357.72
2022-08-18T21:09:00.889Z,95361.78
2022-08-18T21:11:47.631Z,95352.69
2022-08-18T21:14:34.041Z,95342.09
2022-08-18T21:17:20.518Z,95349.19
2022-08-18T21:20:19.320Z,95356.75
2022-08-18T21:23:13.313Z,95358.03
2022-08-18T21:26:06.603Z,95351.72
2022-08-18T21:29:09.019Z,95356.50
2022-08-18T21:32:08.054Z,95365.28
2022-08-18T21:34:55.233Z,95365.31
2022-08-18T21:38:00.162Z,95360.19
2022-08-18T21:40:48.648Z,95368.53
2022-08-18T21:43:49.358Z,95365.81
2022-08-18T21:46:35.869Z,95357.91
2022-08-18T21:49:27.553Z,95365.88
2022-08-18T21:52:24.298Z,95363.13
2022-08-18T21:55:21.712Z,95354.47
2022-08-18T21:58:10.446Z,95360.00
2022-08-18T22:01:26.196Z,95362.44
2022-08-18T22:04:25.174Z,95358.09
2022-08-18T22:07:34.748Z,95360.84
2022-08-18T22:10:48.243Z,95359.31
2022-08-18T22:13:59.763Z,95350.66
2022-08-18T22:16:48.144Z,95360.56
2022-08-18T22:19:34.293Z,95348.38
2022-08-18T22:22:40.162Z,95357.03
2022-08-18T22:25:26.661Z,95349.59
2022-08-18T22:28:12.521Z,95335.06
2022-08-18T22:31:00.367Z,95340.56
2022-08-18T22:33:46.499Z,95335.81
2022-08-18T22:36:36.396Z,95339.81
2022-08-18T22:39:51.950Z,95334.31
2022-08-18T22:42:39.075Z,95328.78
2022-08-18T22:45:25.302Z,95329.97
2022-08-18T22:48:11.761Z,95331.56
2022-08-18T22:50:58.408Z,95321.75
2022-08-18T22:53:46.679Z,95322.56
2022-08-18T22:56:34.415Z,95323.75
2022-08-18T22:59:21.224Z,95324.16
2022-08-18T23:02:07.803Z,95323.03
2022-08-18T23:04:53.513Z,95323.44
2022-08-18T23:07:39.329Z,95323.47
2022-08-18T23:10:26.634Z,95329.00
2022-08-18T23:13:12.823Z,95312.47
2022-08-18T23:16:30.921Z,95318.38
2022-08-18T23:19:05.827Z,95311.28
2022-08-18T23:21:52.471Z,95304.59
2022-08-18T23:24:38.797Z,95300.66
2022-08-18T23:27:24.882Z,95313.28
2022-08-18T23:30:12.274Z,95321.19
2022-08-18T23:32:58.372Z,95316.47
2022-08-18T23:35:44.150Z,95327.56
2022-08-18T23:38:31.779Z,95326.00
2022-08-18T23:41:17.603Z,95311.78
2022-08-18T23:44:03.742Z,95318.13
2022-08-18T23:46:49.576Z,95320.50
2022-08-18T23:49:36.827Z,95322.09
2022-08-18T23:52:22.970Z,95319.00
2022-08-18T23:55:12.515Z,95320.97
2022-08-18T23:57:58.193Z,95309.53
